sensor_id;sensor_type;location;lat;lon;timestamp;pressure;altitude;pressure_sealevel;temperature;humidity
58775;BME280;44545;47.480;19.024;2023-04-26T03:10:16;99595.22;;;7.03;90.67
58775;BME280;44545;47.480;19.024;2023-04-26T03:13:21;99601.94;;;7.00;90.18
58775;BME280;44545;47.480;19.024;2023-04-26T03:16:26;99601.12;;;7.01;89.62
58775;BME280;44545;47.480;19.024;2023-04-26T03:19:29;99615.91;;;7.02;89.30
58775;BME280;44545;47.480;19.024;2023-04-26T03:22:31;99606.25;;;6.99;89.83
58775;BME280;44545;47.480;19.024;2023-04-26T03:25:34;99608.47;;;6.93;90.12
58775;BME280;44545;47.480;19.024;2023-04-26T03:28:37;99612.50;;;6.88;90.41
58775;BME280;44545;47.480;19.024;2023-04-26T03:31:40;99616.34;;;6.94;89.15
58775;BME280;44545;47.480;19.024;2023-04-26T03:34:42;99611.66;;;7.04;88.19
58775;BME280;44545;47.480;19.024;2023-04-26T03:37:45;99615.34;;;7.07;87.33
58775;BME280;44545;47.480;19.024;2023-04-26T03:40:47;99621.31;;;7.06;87.62
58775;BME280;44545;47.480;19.024;2023-04-26T03:43:50;99622.22;;;7.07;87.39
58775;BME280;44545;47.480;19.024;2023-04-26T03:46:52;99627.47;;;7.08;87.33
58775;BME280;44545;47.480;19.024;2023-04-26T03:49:56;99627.56;;;7.10;86.68
58775;BME280;44545;47.480;19.024;2023-04-26T03:52:59;99625.44;;;7.03;87.05
58775;BME280;44545;47.480;19.024;2023-04-26T03:56:01;99634.94;;;7.02;87.03
58775;BME280;44545;47.480;19.024;2023-04-26T03:59:04;99631.78;;;7.08;86.44
58775;BME280;44545;47.480;19.024;2023-04-26T04:02:07;99641.31;;;7.09;86.39
58775;BME280;44545;47.480;19.024;2023-04-26T04:05:10;99647.44;;;7.09;86.19
58775;BME280;44545;47.480;19.024;2023-04-26T04:08:12;99649.19;;;7.10;85.91
58775;BME280;44545;47.480;19.024;2023-04-26T04:11:15;99654.47;;;7.12;85.69
58775;BME280;44545;47.480;19.024;2023-04-26T04:14:18;99666.63;;;7.13;84.90
58775;BME280;44545;47.480;19.024;2023-04-26T04:17:20;99666.16;;;7.20;84.54
58775;BME280;44545;47.480;19.024;2023-04-26T04:20:23;99661.88;;;7.21;84.24
58775;BME280;44545;47.480;19.024;2023-04-26T04:23:28;99660.69;;;7.30;84.27
58775;BME280;44545;47.480;19.024;2023-04-26T04:26:30;99662.22;;;7.27;84.17
58775;BME280;44545;47.480;19.024;2023-04-26T04:29:33;99665.87;;;7.30;83.48
58775;BME280;44545;47.480;19.024;2023-04-26T04:32:36;99674.53;;;7.31;84.02
58775;BME280;44545;47.480;19.024;2023-04-26T04:35:42;99692.50;;;7.43;83.23
58775;BME280;44545;47.480;19.024;2023-04-26T04:38:46;99690.38;;;7.52;81.29
58775;BME280;44545;47.480;19.024;2023-04-26T04:41:49;99698.13;;;7.67;81.24
58775;BME280;44545;47.480;19.024;2023-04-26T04:44:55;99704.53;;;7.73;80.63
58775;BME280;44545;47.480;19.024;2023-04-26T04:47:59;99696.59;;;7.70;79.94
58775;BME280;44545;47.480;19.024;2023-04-26T04:51:01;99703.41;;;7.68;79.96
58775;BME280;44545;47.480;19.024;2023-04-26T04:54:15;99707.47;;;7.79;80.17
58775;BME280;44545;47.480;19.024;2023-04-26T04:57:18;99724.53;;;7.91;80.54
58775;BME280;44545;47.480;19.024;2023-04-26T05:00:21;99715.50;;;7.84;80.15
58775;BME280;44545;47.480;19.024;2023-04-26T05:03:24;99720.53;;;7.97;79.90
58775;BME280;44545;47.480;19.024;2023-04-26T05:06:27;99732.31;;;8.07;79.44
58775;BME280;44545;47.480;19.024;2023-04-26T05:09:30;99732.72;;;8.15;78.33
58775;BME280;44545;47.480;19.024;2023-04-26T05:12:33;99741.13;;;8.42;77.45
58775;BME280;44545;47.480;19.024;2023-04-26T05:15:36;99736.00;;;8.43;76.43
58775;BME280;44545;47.480;19.024;2023-04-26T05:18:39;99740.53;;;8.48;76.14
58775;BME280;44545;47.480;19.024;2023-04-26T05:21:42;99742.50;;;8.52;75.21
58775;BME280;44545;47.480;19.024;2023-04-26T05:24:46;99754.16;;;8.76;73.94
58775;BME280;44545;47.480;19.024;2023-04-26T05:27:49;99747.28;;;8.95;72.21
58775;BME280;44545;47.480;19.024;2023-04-26T05:30:52;99753.72;;;9.19;71.27
58775;BME280;44545;47.480;19.024;2023-04-26T05:33:55;99744.50;;;9.44;69.00
58775;BME280;44545;47.480;19.024;2023-04-26T05:36:59;99757.69;;;9.84;67.08
58775;BME280;44545;47.480;19.024;2023-04-26T05:40:02;99748.87;;;10.37;63.70
58775;BME280;44545;47.480;19.024;2023-04-26T05:43:07;99747.19;;;11.62;59.63
58775;BME280;44545;47.480;19.024;2023-04-26T05:46:10;99748.53;;;12.92;53.42
58775;BME280;44545;47.480;19.024;2023-04-26T05:49:14;99745.44;;;13.84;49.96
58775;BME280;44545;47.480;19.024;2023-04-26T05:52:17;99744.28;;;13.74;47.96
58775;BME280;44545;47.480;19.024;2023-04-26T05:55:19;99754.56;;;13.68;48.01
58775;BME280;44545;47.480;19.024;2023-04-26T05:58:23;99759.69;;;14.83;44.64
58775;BME280;44545;47.480;19.024;2023-04-26T06:01:25;99761.22;;;14.44;44.68
58775;BME280;44545;47.480;19.024;2023-04-26T06:04:29;99756.81;;;15.05;44.46
58775;BME280;44545;47.480;19.024;2023-04-26T06:07:31;99748.06;;;15.76;42.76
58775;BME280;44545;47.480;19.024;2023-04-26T06:10:36;99755.38;;;15.53;41.82
58775;BME280;44545;47.480;19.024;2023-04-26T06:13:40;99757.19;;;16.31;41.21
58775;BME280;44545;47.480;19.024;2023-04-26T06:16:42;99757.63;;;16.98;39.99
58775;BME280;44545;47.480;19.024;2023-04-26T06:19:45;99762.50;;;17.79;38.57
58775;BME280;44545;47.480;19.024;2023-04-26T06:22:47;99765.69;;;17.59;36.57
58775;BME280;44545;47.480;19.024;2023-04-26T06:25:50;99769.66;;;16.84;37.04
58775;BME280;44545;47.480;19.024;2023-04-26T06:28:53;99780.81;;;16.30;38.33
58775;BME280;44545;47.480;19.024;2023-04-26T06:31:55;99768.50;;;16.71;37.96
58775;BME280;44545;47.480;19.024;2023-04-26T06:34:59;99768.00;;;17.38;36.78
58775;BME280;44545;47.480;19.024;2023-04-26T06:38:02;99768.41;;;16.66;36.72
58775;BME280;44545;47.480;19.024;2023-04-26T06:41:04;99759.91;;;16.36;37.69
58775;BME280;44545;47.480;19.024;2023-04-26T06:44:07;99758.09;;;17.79;36.69
58775;BME280;44545;47.480;19.024;2023-04-26T06:47:10;99767.22;;;19.54;32.74
58775;BME280;44545;47.480;19.024;2023-04-26T06:50:12;99763.28;;;19.07;32.87
58775;BME280;44545;47.480;19.024;2023-04-26T06:53:14;99775.13;;;16.95;34.85
58775;BME280;44545;47.480;19.024;2023-04-26T06:56:17;99769.84;;;16.08;36.57
58775;BME280;44545;47.480;19.024;2023-04-26T06:59:20;99774.59;;;15.87;38.27
58775;BME280;44545;47.480;19.024;2023-04-26T07:02:22;99774.16;;;17.38;35.79
58775;BME280;44545;47.480;19.024;2023-04-26T07:05:26;99779.00;;;17.67;34.35
58775;BME280;44545;47.480;19.024;2023-04-26T07:08:28;99764.44;;;18.56;33.83
58775;BME280;44545;47.480;19.024;2023-04-26T07:11:30;99768.50;;;18.29;33.54
58775;BME280;44545;47.480;19.024;2023-04-26T07:14:33;99766.13;;;18.49;32.41
58775;BME280;44545;47.480;19.024;2023-04-26T07:17:39;99772.56;;;18.73;32.20
58775;BME280;44545;47.480;19.024;2023-04-26T07:20:41;99779.97;;;19.03;31.46
58775;BME280;44545;47.480;19.024;2023-04-26T07:23:44;99777.00;;;19.65;30.31
58775;BME280;44545;47.480;19.024;2023-04-26T07:26:46;99774.97;;;20.62;29.45
58775;BME280;44545;47.480;19.024;2023-04-26T07:29:52;99782.25;;;21.66;26.32
58775;BME280;44545;47.480;19.024;2023-04-26T07:32:55;99785.66;;;20.88;25.54
58775;BME280;44545;47.480;19.024;2023-04-26T07:35:58;99795.94;;;20.21;26.36
58775;BME280;44545;47.480;19.024;2023-04-26T07:39:02;99791.00;;;20.94;26.92
58775;BME280;44545;47.480;19.024;2023-04-26T07:42:06;99796.84;;;20.30;26.73
58775;BME280;44545;47.480;19.024;2023-04-26T07:45:09;99803.44;;;18.75;27.62
58775;BME280;44545;47.480;19.024;2023-04-26T07:48:12;99807.62;;;18.59;27.97
58775;BME280;44545;47.480;19.024;2023-04-26T07:51:14;99808.75;;;17.08;29.80
58775;BME280;44545;47.480;19.024;2023-04-26T07:54:17;99818.94;;;17.38;29.24
58775;BME280;44545;47.480;19.024;2023-04-26T07:57:19;99837.50;;;17.94;28.47
58775;BME280;44545;47.480;19.024;2023-04-26T08:00:22;99828.34;;;18.97;28.36
58775;BME280;44545;47.480;19.024;2023-04-26T08:03:25;99826.59;;;18.98;27.66
58775;BME280;44545;47.480;19.024;2023-04-26T08:06:29;99826.84;;;16.89;30.27
58775;BME280;44545;47.480;19.024;2023-04-26T08:09:32;99833.25;;;16.61;31.49
58775;BME280;44545;47.480;19.024;2023-04-26T08:12:36;99834.75;;;17.38;31.06
58775;BME280;44545;47.480;19.024;2023-04-26T08:15:38;99845.47;;;16.59;31.52
58775;BME280;44545;47.480;19.024;2023-04-26T08:18:40;99839.94;;;15.71;33.48
58775;BME280;44545;47.480;19.024;2023-04-26T08:21:46;99853.38;;;14.85;34.50
58775;BME280;44545;47.480;19.024;2023-04-26T08:24:50;99850.22;;;15.97;32.72
58775;BME280;44545;47.480;19.024;2023-04-26T08:27:52;99842.06;;;18.06;29.42
58775;BME280;44545;47.480;19.024;2023-04-26T08:30:55;99838.84;;;21.62;24.99
58775;BME280;44545;47.480;19.024;2023-04-26T08:33:57;99849.94;;;19.39;25.93
58775;BME280;44545;47.480;19.024;2023-04-26T08:37:00;99850.34;;;17.76;28.81
58775;BME280;44545;47.480;19.024;2023-04-26T08:40:04;99843.75;;;18.03;28.28
58775;BME280;44545;47.480;19.024;2023-04-26T08:43:09;99852.25;;;18.39;28.62
58775;BME280;44545;47.480;19.024;2023-04-26T08:46:14;99851.50;;;17.92;27.06
58775;BME280;44545;47.480;19.024;2023-04-26T08:52:35;99853.66;;;17.64;28.17
58775;BME280;44545;47.480;19.024;2023-04-26T08:55:40;99858.75;;;17.06;28.91
58775;BME280;44545;47.480;19.024;2023-04-26T08:58:43;99864.63;;;17.87;27.82
58775;BME280;44545;47.480;19.024;2023-04-26T09:01:46;99856.87;;;20.30;25.10
58775;BME280;44545;47.480;19.024;2023-04-26T09:04:50;99857.88;;;20.44;24.22
58775;BME280;44545;47.480;19.024;2023-04-26T09:07:56;99862.75;;;22.26;22.59
58775;BME280;44545;47.480;19.024;2023-04-26T09:11:02;99843.75;;;23.31;22.17
58775;BME280;44545;47.480;19.024;2023-04-26T09:14:04;99844.41;;;24.64;20.15
58775;BME280;44545;47.480;19.024;2023-04-26T09:17:27;99847.22;;;23.45;21.71
58775;BME280;44545;47.480;19.024;2023-04-26T09:20:29;99855.66;;;21.56;23.18
58775;BME280;44545;47.480;19.024;2023-04-26T09:23:32;99858.22;;;22.70;21.37
58775;BME280;44545;47.480;19.024;2023-04-26T09:26:35;99844.78;;;22.96;21.03
58775;BME280;44545;47.480;19.024;2023-04-26T09:29:38;99855.66;;;24.02;20.20
58775;BME280;44545;47.480;19.024;2023-04-26T09:35:48;99843.97;;;24.98;19.26
58775;BME280;44545;47.480;19.024;2023-04-26T09:38:51;99843.69;;;25.80;20.32
58775;BME280;44545;47.480;19.024;2023-04-26T09:41:54;99846.84;;;22.00;22.64
58775;BME280;44545;47.480;19.024;2023-04-26T09:45:05;99859.97;;;21.10;24.88
58775;BME280;44545;47.480;19.024;2023-04-26T09:48:30;99865.94;;;23.30;20.36
58775;BME280;44545;47.480;19.024;2023-04-26T09:51:33;99849.97;;;25.17;18.86
58775;BME280;44545;47.480;19.024;2023-04-26T09:54:50;99851.13;;;24.14;19.11
58775;BME280;44545;47.480;19.024;2023-04-26T09:57:56;99851.69;;;24.51;19.36
58775;BME280;44545;47.480;19.024;2023-04-26T10:00:59;99836.75;;;27.11;17.90
58775;BME280;44545;47.480;19.024;2023-04-26T10:04:03;99838.84;;;27.38;16.79
58775;BME280;44545;47.480;19.024;2023-04-26T10:07:08;99853.63;;;24.29;19.70
58775;BME280;44545;47.480;19.024;2023-04-26T10:10:11;99829.03;;;27.75;16.68
58775;BME280;44545;47.480;19.024;2023-04-26T10:13:14;99838.97;;;26.45;17.59
58775;BME280;44545;47.480;19.024;2023-04-26T10:16:16;99827.47;;;28.02;16.31
58775;BME280;44545;47.480;19.024;2023-04-26T10:19:22;99837.81;;;27.80;16.00
58775;BME280;44545;47.480;19.024;2023-04-26T10:22:29;99840.50;;;24.93;17.84
58775;BME280;44545;47.480;19.024;2023-04-26T10:25:34;99834.63;;;24.63;19.35
58775;BME280;44545;47.480;19.024;2023-04-26T10:35:13;99846.75;;;22.59;17.63
58775;BME280;44545;47.480;19.024;2023-04-26T10:38:15;99846.75;;;24.92;16.77
58775;BME280;44545;47.480;19.024;2023-04-26T10:41:35;99852.94;;;27.85;15.79
58775;BME280;44545;47.480;19.024;2023-04-26T10:44:39;99854.56;;;29.50;13.62
58775;BME280;44545;47.480;19.024;2023-04-26T10:47:42;99841.28;;;29.74;13.94
58775;BME280;44545;47.480;19.024;2023-04-26T10:54:00;99849.47;;;26.56;16.15
58775;BME280;44545;47.480;19.024;2023-04-26T10:57:03;99854.03;;;25.45;17.07
58775;BME280;44545;47.480;19.024;2023-04-26T11:03:11;99862.00;;;20.01;23.25
58775;BME280;44545;47.480;19.024;2023-04-26T11:06:14;99886.28;;;16.02;28.38
58775;BME280;44545;47.480;19.024;2023-04-26T11:09:39;99882.25;;;14.28;30.53
58775;BME280;44545;47.480;19.024;2023-04-26T11:12:58;99879.16;;;15.30;29.22
58775;BME280;44545;47.480;19.024;2023-04-26T11:16:06;99870.63;;;16.86;26.91
58775;BME280;44545;47.480;19.024;2023-04-26T11:19:09;99874.16;;;17.30;25.88
58775;BME280;44545;47.480;19.024;2023-04-26T11:22:11;99855.75;;;18.38;25.16
58775;BME280;44545;47.480;19.024;2023-04-26T11:25:14;99850.75;;;17.99;24.73
58775;BME280;44545;47.480;19.024;2023-04-26T11:28:17;99870.31;;;16.72;28.18
58775;BME280;44545;47.480;19.024;2023-04-26T11:31:20;99876.94;;;15.77;28.15
58775;BME280;44545;47.480;19.024;2023-04-26T11:34:33;99871.22;;;15.62;29.69
58775;BME280;44545;47.480;19.024;2023-04-26T11:37:36;99870.31;;;15.61;28.39
58775;BME280;44545;47.480;19.024;2023-04-26T11:40:39;99877.47;;;15.66;28.26
58775;BME280;44545;47.480;19.024;2023-04-26T11:43:42;99871.25;;;16.74;26.66
58775;BME280;44545;47.480;19.024;2023-04-26T11:46:48;99863.66;;;16.88;26.50
58775;BME280;44545;47.480;19.024;2023-04-26T11:49:51;99874.47;;;15.85;27.53
58775;BME280;44545;47.480;19.024;2023-04-26T11:52:54;99873.66;;;15.88;28.01
58775;BME280;44545;47.480;19.024;2023-04-26T11:55:57;99873.50;;;14.85;31.05
58775;BME280;44545;47.480;19.024;2023-04-26T11:58:59;99872.28;;;14.72;30.39
58775;BME280;44545;47.480;19.024;2023-04-26T12:02:07;99881.09;;;14.76;30.57
58775;BME280;44545;47.480;19.024;2023-04-26T12:05:09;99893.56;;;14.83;30.00
58775;BME280;44545;47.480;19.024;2023-04-26T12:08:12;99880.88;;;14.68;30.56
58775;BME280;44545;47.480;19.024;2023-04-26T12:11:16;99868.62;;;15.64;30.33
58775;BME280;44545;47.480;19.024;2023-04-26T12:14:18;99873.31;;;15.74;30.28
58775;BME280;44545;47.480;19.024;2023-04-26T12:17:21;99878.37;;;15.03;28.98
58775;BME280;44545;47.480;19.024;2023-04-26T12:20:28;99872.88;;;14.93;30.34
58775;BME280;44545;47.480;19.024;2023-04-26T12:23:39;99871.91;;;14.60;30.80
58775;BME280;44545;47.480;19.024;2023-04-26T12:26:43;99882.41;;;14.32;31.12
58775;BME280;44545;47.480;19.024;2023-04-26T12:29:46;99880.78;;;14.36;30.97
58775;BME280;44545;47.480;19.024;2023-04-26T12:32:48;99885.09;;;14.07;31.51
58775;BME280;44545;47.480;19.024;2023-04-26T12:35:54;99886.63;;;14.27;30.52
58775;BME280;44545;47.480;19.024;2023-04-26T12:38:58;99890.66;;;14.16;29.77
58775;BME280;44545;47.480;19.024;2023-04-26T12:42:03;99876.44;;;14.65;29.77
58775;BME280;44545;47.480;19.024;2023-04-26T12:45:06;99892.91;;;15.22;28.86
58775;BME280;44545;47.480;19.024;2023-04-26T12:48:09;99881.75;;;14.99;29.65
58775;BME280;44545;47.480;19.024;2023-04-26T12:51:13;99894.34;;;14.79;29.67
58775;BME280;44545;47.480;19.024;2023-04-26T12:54:15;99893.03;;;14.37;31.77
58775;BME280;44545;47.480;19.024;2023-04-26T12:57:18;99898.19;;;13.54;32.58
58775;BME280;44545;47.480;19.024;2023-04-26T13:00:22;99907.59;;;13.73;32.70
58775;BME280;44545;47.480;19.024;2023-04-26T13:03:24;99916.38;;;14.01;32.59
58775;BME280;44545;47.480;19.024;2023-04-26T13:06:26;99909.00;;;13.63;32.83
58775;BME280;44545;47.480;19.024;2023-04-26T13:09:29;99903.53;;;14.10;32.42
58775;BME280;44545;47.480;19.024;2023-04-26T13:12:32;99905.88;;;14.55;31.76
58775;BME280;44545;47.480;19.024;2023-04-26T13:15:34;99903.84;;;14.75;31.20
58775;BME280;44545;47.480;19.024;2023-04-26T13:18:38;99902.69;;;14.95;31.86
58775;BME280;44545;47.480;19.024;2023-04-26T13:21:40;99898.22;;;14.63;31.37
58775;BME280;44545;47.480;19.024;2023-04-26T13:24:43;99905.03;;;14.02;31.36
58775;BME280;44545;47.480;19.024;2023-04-26T13:27:46;99916.78;;;13.62;33.19
58775;BME280;44545;47.480;19.024;2023-04-26T13:30:48;99924.16;;;13.24;32.69
58775;BME280;44545;47.480;19.024;2023-04-26T13:33:51;99926.03;;;13.27;32.26
58775;BME280;44545;47.480;19.024;2023-04-26T13:36:54;99920.44;;;13.17;31.29
58775;BME280;44545;47.480;19.024;2023-04-26T13:39:59;99925.00;;;12.99;31.16
58775;BME280;44545;47.480;19.024;2023-04-26T13:43:02;99919.59;;;13.18;31.20
58775;BME280;44545;47.480;19.024;2023-04-26T13:46:04;99921.59;;;13.26;31.64
58775;BME280;44545;47.480;19.024;2023-04-26T13:49:07;99912.72;;;13.44;31.87
58775;BME280;44545;47.480;19.024;2023-04-26T13:52:11;99917.31;;;13.77;30.92
58775;BME280;44545;47.480;19.024;2023-04-26T13:55:14;99938.28;;;13.77;32.80
58775;BME280;44545;47.480;19.024;2023-04-26T13:58:16;99941.13;;;13.34;32.71
58775;BME280;44545;47.480;19.024;2023-04-26T14:01:19;99942.88;;;12.87;32.80
58775;BME280;44545;47.480;19.024;2023-04-26T14:04:22;99941.50;;;12.96;32.88
58775;BME280;44545;47.480;19.024;2023-04-26T14:07:24;99938.91;;;13.44;34.37
58775;BME280;44545;47.480;19.024;2023-04-26T14:10:27;99942.78;;;13.32;32.99
58775;BME280;44545;47.480;19.024;2023-04-26T14:13:29;99941.97;;;13.33;33.52
58775;BME280;44545;47.480;19.024;2023-04-26T14:16:32;99939.97;;;13.03;33.07
58775;BME280;44545;47.480;19.024;2023-04-26T14:19:34;99936.75;;;13.10;33.29
58775;BME280;44545;47.480;19.024;2023-04-26T14:22:37;99939.47;;;13.13;33.74
58775;BME280;44545;47.480;19.024;2023-04-26T14:25:39;99940.75;;;13.00;32.42
58775;BME280;44545;47.480;19.024;2023-04-26T14:28:42;99937.44;;;13.53;32.66
58775;BME280;44545;47.480;19.024;2023-04-26T14:31:44;99925.75;;;13.69;31.51
58775;BME280;44545;47.480;19.024;2023-04-26T14:34:47;99940.75;;;13.73;31.87
58775;BME280;44545;47.480;19.024;2023-04-26T14:37:49;99933.97;;;13.54;31.89
58775;BME280;44545;47.480;19.024;2023-04-26T14:40:52;99936.16;;;13.65;31.88
58775;BME280;44545;47.480;19.024;2023-04-26T14:43:54;99946.09;;;12.79;32.56
58775;BME280;44545;47.480;19.024;2023-04-26T14:46:57;99941.22;;;13.13;32.73
58775;BME280;44545;47.480;19.024;2023-04-26T14:49:59;99931.97;;;13.22;32.92
58775;BME280;44545;47.480;19.024;2023-04-26T14:53:02;99936.81;;;13.12;35.08
58775;BME280;44545;47.480;19.024;2023-04-26T14:56:04;99954.41;;;12.47;34.95
58775;BME280;44545;47.480;19.024;2023-04-26T14:59:08;99962.75;;;12.38;34.60
58775;BME280;44545;47.480;19.024;2023-04-26T15:02:10;99960.63;;;12.07;34.35
58775;BME280;44545;47.480;19.024;2023-04-26T15:05:13;99969.41;;;12.09;33.93
58775;BME280;44545;47.480;19.024;2023-04-26T15:08:15;99964.06;;;12.06;34.64
58775;BME280;44545;47.480;19.024;2023-04-26T15:11:18;99974.88;;;12.15;33.63
58775;BME280;44545;47.480;19.024;2023-04-26T15:14:20;99975.19;;;12.23;33.50
58775;BME280;44545;47.480;19.024;2023-04-26T15:17:23;99984.59;;;12.39;34.05
58775;BME280;44545;47.480;19.024;2023-04-26T15:20:25;99971.47;;;12.16;34.55
58775;BME280;44545;47.480;19.024;2023-04-26T15:23:28;99975.31;;;11.84;37.44
58775;BME280;44545;47.480;19.024;2023-04-26T15:26:30;99973.75;;;12.08;36.03
